Terminal Aerodrome Forecast
Issued by NWS

Home | Current Version | Previous Version | Text Only | Print | Product List | Glossary On
Versions: 1 2 3 4 5 6 7 8 9 10 11 12 13 14 15 16 17 18 19 20 21 22 23 24 25 26
000
FTUS41 KGYX 161756 AAA
TAFLEB
TAF AMD
KLEB 161756Z 1618/1718 VRB03KT P6SM BKN014 OVC025
     FM170000 00000KT P6SM SCT100
     FM170600 00000KT 1/2SM FG FEW250
     FM170900 00000KT 1/4SM FG OVC001
     FM171500 28002KT P6SM SKC=

USA.gov is the U.S. government's official web portal to all federal, state and local government web resources and services.